This is the latest recevied weather packets stored in our database for station/object AA6HF. If no packets are shown the sender has not sent any weather packets the latest 10 day(s).
| Time | Temp. | Humidity | Pressure | Rain* | Wind** | Luminosity | Snow |
|---|---|---|---|---|---|---|---|
| 1778015125 | 25.56° C | 24% | 1009.7 hPa | 0 mm | - | - | - |
| 1778014825 | 25.56° C | 26% | 1009.7 hPa | 0 mm | - | - | - |
| 1778014525 | 25.56° C | 26% | 1009.7 hPa | 0 mm | - | - | - |
| 1778014225 | 25° C | 26% | 1009.6 hPa | 0 mm | - | - | - |
| 1778013925 | 24.44° C | 27% | 1009.7 hPa | 0 mm | - | - | - |
| 1778013625 | 25° C | 26% | 1009.7 hPa | 0 mm | - | - | - |
| 1778013325 | 25° C | 26% | 1009.7 hPa | 0 mm | - | - | - |
| 1778013025 | 25° C | 27% | 1009.7 hPa | 0 mm | - | - | - |
| 1778012725 | 25° C | 27% | 1009.8 hPa | 0 mm | - | - | - |
| 1778012425 | 25° C | 27% | 1009.9 hPa | 0 mm | - | - | - |
| 1778012125 | 24.44° C | 28% | 1009.9 hPa | 0 mm | - | - | - |
| 1778011825 | 24.44° C | 29% | 1010 hPa | 0 mm | - | - | - |
| 1778011525 | 23.89° C | 29% | 1010 hPa | 0 mm | - | - | - |
| 1778011225 | 23.89° C | 30% | 1010 hPa | 0 mm | - | - | - |
| 1778010925 | 24.44° C | 28% | 1010.2 hPa | 0 mm | - | - | - |
| 1778010625 | 25° C | 28% | 1010.1 hPa | 0 mm | - | - | - |
| 1778010325 | 25° C | 29% | 1010.3 hPa | 0 mm | - | - | - |
| 1778010025 | 24.44° C | 29% | 1010.2 hPa | 0 mm | - | - | - |
| 1778009725 | 25° C | 27% | 1010.3 hPa | 0 mm | - | - | - |
| 1778009425 | 25° C | 26% | 1010.4 hPa | 0 mm | - | - | - |
| 1778009125 | 25° C | 29% | 1010.4 hPa | 0 mm | - | - | - |
| 1778008826 | 25° C | 27% | 1010.4 hPa | 0 mm | - | - | - |
| 1778008526 | 24.44° C | 28% | 1010.5 hPa | 0 mm | - | - | - |
| 1778008226 | 23.33° C | 30% | 1010.6 hPa | 0 mm | - | - | - |
| 1778007926 | 22.78° C | 32% | 1010.6 hPa | 0 mm | - | - | - |
* Rain latest hour (hover to see other rain measurements)
** Current wind speed in m/s (hover to see current wind gust speed)